Latest Weather Observations for Ulladulla

IDN60801

Issued at 5:22 pm EST Friday 22 June 2018 (issued every 10 minutes, with the page automatically refreshed every 10 minutes)

About weather observations | Map of weather stations | Latest weather observations for NSW | Other Formats
Station Details ID: 069138 Name: ULLADULLA AWS Lat: -35.36 Lon: 150.48 Height: 35.7 m
Data from the previous 72 hours. | See also: Recent months at Ulladulla
Date/Time
EST
Temp
°C
App
Temp
°C
Dew
Point
°C
Rel
Hum
%
Delta-T
°C
Wind Press
QNH
hPa
Press
MSL
hPa
Rain since
9am
mm
Dir  Spd
km/h
Gust
km/h
Spd
kts
Gust
kts
22/05:00pm 12.8 12.2 7.3 69 2.7 CALM 0 2 0 1 1025.6 1025.7 0.0
22/04:30pm 14.0 13.6 8.2 68 2.9 CALM 0 0 0 0 1025.4 1025.5 0.0
22/04:00pm 14.1 13.2 7.6 65 3.2 ESE 2 4 1 2 1025.4 1025.5 0.0
22/03:30pm 14.6 13.4 8.1 65 3.3 E 4 6 2 3 1025.3 1025.4 0.0
22/03:00pm 14.6 13.0 7.9 64 3.3 ENE 6 9 3 5 1025.4 1025.5 0.0
22/02:30pm 14.7 13.1 8.2 65 3.3 E 6 9 3 5 1025.6 1025.7 0.0
22/02:00pm 14.6 13.3 7.6 63 3.4 E 4 9 2 5 1025.6 1025.7 0.0
22/01:30pm 14.6 12.9 7.4 62 3.6 ESE 6 9 3 5 1025.6 1025.7 0.0
22/01:00pm 15.0 13.6 7.3 60 3.8 ESE 4 7 2 4 1026.4 1026.4 0.0
22/12:30pm 14.8 13.0 7.1 60 3.8 ESE 6 9 3 5 1026.6 1026.6 0.0
22/12:00pm 14.9 13.5 7.2 60 3.8 E 4 9 2 5 1027.1 1027.1 0.0
22/11:30am 15.3 14.0 7.8 61 3.7 ENE 4 6 2 3 1027.7 1027.7 0.0
22/11:00am 14.0 12.5 6.8 62 3.5 SSE 4 6 2 3 1028.1 1028.1 0.0
22/10:30am 14.5 13.3 6.6 59 3.8 WSW 2 4 1 2 1028.4 1028.4 0.0
22/10:00am 14.3 13.0 5.9 57 4.0 WSW 2 4 1 2 1028.4 1028.4 0.0
22/09:30am 13.0 11.4 4.7 57 3.8 WNW 2 4 1 2 1028.3 1028.3 0.0
22/09:00am 12.4 11.3 4.9 60 3.4 CALM 0 4 0 2 1028.2 1028.2 0.0
22/08:30am 12.4 11.9 7.7 73 2.3 CALM 0 0 0 0 1027.9 1027.9 0.0
22/08:00am 9.6 8.4 4.6 71 2.2 CALM 0 0 0 0 1028.1 1028.1 0.0
22/07:30am 8.1 6.8 3.9 75 1.8 CALM 0 0 0 0 1028.0 1028.0 0.0
22/07:00am 7.7 5.9 3.6 75 1.7 WNW 2 4 1 2 1027.7 1027.7 0.0
22/06:30am 7.5 5.6 3.0 73 1.9 WNW 2 4 1 2 1027.4 1027.4 0.0
22/06:00am 8.1 6.3 3.6 73 1.9 WNW 2 4 1 2 1027.2 1027.2 0.0
22/05:30am 7.8 5.6 3.5 74 1.8 W 4 6 2 3 1027.1 1027.1 0.0
22/05:00am 8.1 6.3 3.6 73 1.9 WNW 2 4 1 2 1026.8 1026.8 0.0
22/04:30am 7.8 5.2 3.1 72 2.0 W 6 6 3 3 1026.9 1026.9 0.0
22/04:00am 8.2 6.0 3.3 71 2.1 WNW 4 6 2 3 1027.0 1027.0 0.0
22/03:30am 8.2 6.0 3.3 71 2.1 W 4 7 2 4 1027.2 1027.2 0.0
22/03:00am 8.4 5.7 3.7 72 2.0 W 7 9 4 5 1027.3 1027.3 0.0
22/02:30am 8.4 5.9 3.5 71 2.1 W 6 9 3 5 1027.4 1027.4 0.0
22/02:00am 8.6 5.8 3.4 70 2.2 W 7 11 4 6 1027.5 1027.5 0.0
22/01:30am 8.8 5.7 3.6 70 2.2 W 9 11 5 6 1027.6 1027.6 0.0
22/01:00am 8.7 5.5 3.3 69 2.3 W 9 13 5 7 1027.8 1027.8 0.0
22/12:30am 8.9 5.8 3.5 69 2.3 W 9 13 5 7 1028.0 1028.0 0.0
22/12:00am 8.7 5.5 3.3 69 2.3 W 9 11 5 6 1028.2 1028.2 0.0
 
Date/Time
EST
Temp
°C
App
Temp
°C
Dew
Point
°C
Rel
Hum
%
Delta-T
°C
Wind Press
QNH
hPa
Press
MSL
hPa
Rain since
9am
mm
Dir  Spd
km/h
Gust
km/h
Spd
kts
Gust
kts
21/11:30pm 8.8 5.3 3.6 70 2.2 W 11 13 6 7 1028.3 1028.3 0.0
21/11:00pm 8.9 5.4 3.7 70 2.2 W 11 13 6 7 1028.2 1028.2 0.0
21/10:30pm 9.1 6.1 4.1 71 2.2 W 9 11 5 6 1028.2 1028.2 0.0
21/10:00pm 9.3 7.0 4.7 73 2.0 W 6 9 3 5 1028.2 1028.2 0.0
21/09:30pm 9.4 7.0 5.2 75 1.9 W 7 9 4 5 1028.1 1028.1 0.0
21/09:00pm 9.6 7.3 5.6 76 1.8 W 7 9 4 5 1028.2 1028.2 0.0
21/08:30pm 9.3 7.5 5.3 76 1.8 WNW 4 6 2 3 1028.2 1028.2 0.0
21/08:00pm 9.8 8.0 5.4 74 2.0 WNW 4 6 2 3 1028.0 1028.0 0.0
21/07:30pm 9.6 7.8 5.2 74 2.0 WNW 4 6 2 3 1027.9 1027.9 0.0
21/07:00pm 9.8 8.3 5.0 72 2.1 NW 2 4 1 2 1027.8 1027.8 0.0
21/06:30pm 10.5 9.3 4.6 67 2.7 CALM 0 0 0 0 1027.6 1027.6 0.0
21/06:00pm 10.9 9.7 4.6 65 2.8 CALM 0 0 0 0 1027.2 1027.2 0.0
21/05:30pm 11.1 9.9 4.8 65 2.9 CALM 0 2 0 1 1027.0 1027.0 0.0
21/05:00pm 11.6 10.1 5.0 64 3.0 SSE 2 4 1 2 1026.8 1026.8 0.0
21/04:30pm 12.7 11.7 5.4 61 3.4 CALM 0 2 0 1 1026.7 1026.7 0.0
21/04:00pm 13.9 12.9 5.8 58 3.8 CALM 0 0 0 0 1026.7 1026.7 0.0
21/03:30pm 14.8 13.5 5.9 55 4.3 E 2 4 1 2 1026.6 1026.6 0.0
21/03:00pm 15.2 13.9 6.0 54 4.4 E 2 6 1 3 1026.4 1026.4 0.0
21/02:30pm 15.3 14.0 6.1 54 4.4 SSE 2 6 1 3 1026.3 1026.3 0.0
21/02:00pm 15.5 13.8 5.7 52 4.7 SE 4 6 2 3 1026.4 1026.4 0.0
21/01:30pm 15.5 13.6 6.8 56 4.3 ESE 6 7 3 4 1026.7 1026.7 0.0
21/01:00pm 15.5 13.9 6.2 54 4.5 S 4 6 2 3 1027.1 1027.1 0.0
21/12:30pm 15.2 13.3 6.7 57 4.2 S 6 7 3 4 1027.3 1027.3 0.0
21/12:00pm 15.6 13.9 5.8 52 4.7 E 4 6 2 3 1027.7 1027.7 0.0
21/11:30am 15.6 13.9 5.8 52 4.7 NNE 4 6 2 3 1028.0 1028.0 0.0
21/11:00am 15.4 13.4 4.2 47 5.2 N 4 6 2 3 1028.3 1028.3 0.0
21/10:30am 15.9 14.6 4.0 45 5.5 CALM 0 4 0 2 1028.6 1028.6 0.0
21/10:00am 16.1 15.4 7.1 55 4.4 CALM 0 2 0 1 1028.8 1028.8 0.0
21/09:30am 14.5 12.8 5.8 56 4.1 W 4 7 2 4 1028.7 1028.7 0.0
21/09:00am 13.4 11.7 5.8 60 3.6 W 4 7 2 4 1028.6 1028.6 0.0
21/08:30am 11.6 9.3 5.0 64 3.0 WNW 6 9 3 5 1028.6 1028.6 0.0
21/08:00am 10.0 7.7 5.0 71 2.2 W 6 9 3 5 1028.4 1028.4 0.0
21/07:30am 9.4 7.0 4.4 71 2.2 W 6 7 3 4 1028.2 1028.2 0.0
21/07:00am 9.4 6.9 4.6 72 2.1 W 7 11 4 6 1027.9 1027.9 0.0
21/06:30am 9.6 6.4 5.0 73 2.1 W 11 13 6 7 1027.7 1027.7 0.0
21/06:00am 9.5 7.2 5.7 77 1.7 W 7 11 4 6 1027.3 1027.3 0.0
21/05:30am 9.6 7.4 6.0 78 1.7 W 7 9 4 5 1027.1 1027.1 0.0
21/05:00am 9.8 7.6 6.3 79 1.6 W 7 11 4 6 1027.0 1027.0 0.0
21/04:30am 9.7 7.5 6.4 80 1.5 W 7 11 4 6 1026.9 1026.9 0.0
21/04:00am 9.7 6.8 6.4 80 1.5 W 11 13 6 7 1027.0 1027.0 0.0
21/03:30am 9.7 6.9 6.8 82 1.4 W 11 13 6 7 1027.1 1027.1 0.0
21/03:00am 9.7 7.6 6.8 82 1.4 W 7 9 4 5 1027.1 1027.1 0.0
21/02:30am 9.7 7.8 6.6 81 1.4 W 6 7 3 4 1027.0 1027.0 0.0
21/02:00am 9.8 7.7 6.7 81 1.4 W 7 9 4 5 1027.1 1027.1 0.0
21/01:30am 10.0 7.9 6.7 80 1.5 W 7 9 4 5 1027.3 1027.3 0.0
21/01:00am 10.1 8.0 6.8 80 1.5 W 7 9 4 5 1027.3 1027.3 0.0
21/12:30am 10.0 7.5 6.7 80 1.5 W 9 11 5 6 1027.5 1027.5 0.0
21/12:00am 9.9 7.4 6.6 80 1.5 W 9 9 5 5 1027.6 1027.6 0.0
 
Date/Time
EST
Temp
°C
App
Temp
°C
Dew
Point
°C
Rel
Hum
%
Delta-T
°C
Wind Press
QNH
hPa
Press
MSL
hPa
Rain since
9am
mm
Dir  Spd
km/h
Gust
km/h
Spd
kts
Gust
kts
20/11:30pm 10.0 7.9 6.5 79 1.6 W 7 7 4 4 1027.7 1027.7 0.0
20/11:00pm 10.3 7.9 6.8 79 1.6 W 9 11 5 6 1027.9 1027.9 0.0
20/10:30pm 10.3 7.9 6.8 79 1.7 W 9 11 5 6 1028.1 1028.1 0.0
20/10:00pm 10.3 8.2 6.8 79 1.6 W 7 11 4 6 1028.1 1028.1 0.0
20/09:30pm 10.2 8.1 6.5 78 1.7 W 7 9 4 5 1028.3 1028.3 0.0
20/09:00pm 10.8 8.9 6.9 77 1.8 W 6 7 3 4 1028.4 1028.4 0.0
20/08:30pm 11.3 9.5 7.2 76 2.0 W 6 9 3 5 1028.4 1028.4 0.0
20/08:00pm 11.9 10.0 7.6 75 2.1 W 7 9 4 5 1028.6 1028.6 0.0
20/07:30pm 12.2 11.0 7.9 75 2.1 W 4 7 2 4 1028.4 1028.4 0.0
20/07:00pm 12.4 10.8 7.9 74 2.2 W 6 7 3 4 1028.2 1028.2 0.0
20/06:30pm 12.9 11.3 8.0 72 2.4 WSW 6 7 3 4 1028.2 1028.2 0.0
20/06:00pm 13.5 11.9 7.9 69 2.8 SW 6 11 3 6 1028.1 1028.1 0.0
20/05:30pm 14.5 12.0 8.2 66 3.2 S 11 19 6 10 1028.0 1028.0 0.0
20/05:00pm 14.4 11.1 7.9 65 3.2 S 15 20 8 11 1027.8 1027.8 0.0
20/04:30pm 14.5 10.9 8.2 66 3.2 S 17 22 9 12 1027.7 1027.7 0.0
20/04:00pm 14.7 11.4 8.0 64 3.3 S 15 22 8 12 1027.7 1027.7 0.0
20/03:30pm 14.8 11.4 9.0 68 3.0 S 17 20 9 11 1027.6 1027.6 0.0
20/03:00pm 15.1 11.7 9.0 67 3.1 S 17 22 9 12 1027.4 1027.4 0.0
20/02:30pm 14.6 10.9 7.9 64 3.3 S 17 22 9 12 1027.4 1027.4 0.0
20/02:00pm 15.0 11.2 8.9 67 3.1 S 19 24 10 13 1027.5 1027.5 0.0
20/01:30pm 15.4 12.4 9.1 66 3.2 S 15 20 8 11 1027.7 1027.7 0.0
20/01:00pm 15.4 12.0 9.1 66 3.2 S 17 26 9 14 1027.7 1027.7 0.0
20/12:30pm 15.5 13.5 10.1 70 2.8 S 11 20 6 11 1028.1 1028.1 0.0
20/12:00pm 14.7 12.6 9.7 72 2.6 SSW 11 19 6 10 1028.4 1028.4 0.0
20/11:30am 14.7 12.3 10.1 74 2.4 SSW 13 20 7 11 1028.8 1028.8 0.0
20/11:00am 14.7 12.7 10.3 75 2.3 SW 11 17 6 9 1028.9 1028.9 0.0
20/10:30am 13.5 11.8 9.7 78 2.0 WSW 9 15 5 8 1029.2 1029.2 0.0
20/10:00am 13.4 11.6 9.6 78 1.9 WSW 9 15 5 8 1029.1 1029.1 0.0
20/09:30am 13.4 12.2 10.4 82 1.6 WSW 7 13 4 7 1028.8 1028.8 0.0
20/09:00am 12.1 10.8 9.8 86 1.2 WSW 7 11 4 6 1028.6 1028.6 20.8
20/08:30am 11.7 10.0 9.8 88 1.0 WSW 9 17 5 9 1028.6 1028.6 20.8
20/08:00am 11.3 9.5 9.4 88 0.9 WSW 9 13 5 7 1028.3 1028.3 20.8
20/07:30am 11.1 9.6 9.0 87 1.0 WSW 7 11 4 6 1028.3 1028.3 20.8
20/07:00am 11.7 9.8 9.1 84 1.3 SW 9 13 5 7 1028.2 1028.2 20.8
20/06:30am 12.7 10.1 10.6 87 1.1 SSW 15 30 8 16 1028.1 1028.1 20.8
20/06:00am 11.4 9.0 10.1 92 0.7 SSW 13 19 7 10 1028.1 1028.1 20.8
20/05:30am 10.9 8.8 9.7 92 0.6 SW 11 17 6 9 1028.3 1028.3 20.8
20/05:00am 10.8 8.7 9.7 93 0.6 SSW 11 19 6 10 1028.2 1028.2 20.8
20/04:30am 10.8 8.4 10.0 95 0.4 SW 13 20 7 11 1028.3 1028.3 20.8
20/04:00am 11.0 8.3 10.4 96 0.3 SSW 15 24 8 13 1028.1 1028.1 20.8
20/03:30am 11.0 8.4 10.8 99 0.1 WSW 15 22 8 12 1028.2 1028.2 20.8
20/03:00am 11.0 8.0 10.8 99 0.1 WSW 17 24 9 13 1028.1 1028.1 20.6
20/02:30am 11.1 8.6 10.9 99 0.1 SW 15 20 8 11 1027.5 1027.5 19.8
20/02:00am 10.9 8.4 10.9 100 0.0 SW 15 22 8 12 1027.1 1027.1 19.8
20/01:30am 11.0 8.5 11.0 100 0.0 SW 15 24 8 13 1027.1 1027.1 19.8
20/01:00am 11.0 8.9 11.0 100 0.0 SW 13 19 7 10 1026.8 1026.8 19.8
20/12:30am 11.0 8.5 11.0 100 0.0 SW 15 20 8 11 1026.7 1026.7 19.4
20/12:00am 10.9 8.7 10.9 100 0.0 SW 13 19 7 10 1026.8 1026.8 19.4
 
Date/Time
EST
Temp
°C
App
Temp
°C
Dew
Point
°C
Rel
Hum
%
Delta-T
°C
Wind Press
QNH
hPa
Press
MSL
hPa
Rain since
9am
mm
Dir  Spd
km/h
Gust
km/h
Spd
kts
Gust
kts
19/11:30pm 11.0 8.5 11.0 100 0.0 SW 15 24 8 13 1027.0 1027.0 19.4
19/11:00pm 11.2 9.1 11.2 100 0.0 SW 13 22 7 12 1027.0 1027.0 19.4
19/10:30pm 11.1 7.9 11.1 100 0.0 SW 19 26 10 14 1027.1 1027.1 19.4
19/10:00pm 11.0 8.1 11.0 100 0.0 SW 17 24 9 13 1027.0 1027.0 19.0
19/09:30pm 11.0 8.5 11.0 100 0.0 SW 15 22 8 12 1026.9 1026.9 19.0
19/09:00pm 11.0 8.1 11.0 100 0.0 SW 17 24 9 13 1027.1 1027.1 18.2
19/08:30pm 11.2 8.0 11.2 100 0.0 SW 19 30 10 16 1027.1 1027.1 18.0
19/08:00pm 11.1 7.9 11.1 100 0.0 SW 19 30 10 16 1027.0 1027.0 15.8
19/07:30pm 11.1 8.2 11.1 100 0.0 SW 17 32 9 17 1027.1 1027.1 15.8
19/07:00pm 11.1 7.9 11.1 100 0.0 SW 19 28 10 15 1026.8 1026.8 15.4
19/06:30pm 11.4 7.7 11.4 100 0.0 SW 22 35 12 19 1026.5 1026.5 15.4
19/06:00pm 11.3 7.9 11.3 100 0.0 SW 20 35 11 19 1025.6 1025.7 14.8
19/05:30pm 11.5 8.1 11.3 99 0.1 SW 20 35 11 19 1025.2 1025.3 14.6

Other Formats:

Comma delimited format used in spreadsheet applications
http://www.bom.gov.au/fwo/IDN60801/IDN60801.94938.axf

JavaScript Object Notation format (JSON) in row-major order
http://www.bom.gov.au/fwo/IDN60801/IDN60801.94938.json